NCAR-RAP Real-Time Weather Data

Output produced by METARs form (17 September 2019  17:04 UTC)
found at http://weather.rap.ucar.edu/surface/
 
KFSD 171656Z 19015G33KT 10SM FEW250 29/20 A2986 RMK AO2 PK WND 20034/1608 SLP098 T02940200
KFSD 171556Z 19018G31KT 10SM FEW130 28/20 A2987 RMK AO2 PK WND 17032/1516 SLP102 T02780200
KFSD 171456Z 18016G32KT 10SM FEW130 26/20 A2986 RMK AO2 PK WND 17032/1454 SLP101 T02610200 58001
KFSD 171356Z 17017G28KT 10SM SCT130 25/19 A2987 RMK AO2 PK WND 18030/1335 SLP102 T02500194
KFSD 171256Z 17014G25KT 10SM FEW110 BKN190 24/19 A2987 RMK AO2 SLP103 T02440194
KFSD 171156Z 17013G24KT 10SM FEW120 BKN140 24/19 A2987 RMK AO2 SLP102 7//// T02440189 10256 20244 51001
KFSD 171056Z 17012KT 10SM FEW120 BKN130 24/19 A2987 RMK AO2 SLP102 T02440194
KFSD 170956Z 17014G23KT 10SM SCT110 24/19 A2987 RMK AO2 PK WND 17026/0918 SLP102 T02440194
KFSD 170856Z AUTO 17017G27KT 10SM FEW110 26/19 A2986 RMK AO2 PK WND 18027/0850 SLP101 T02560194 58007
KFSD 170756Z AUTO 17017G23KT 10SM FEW120 26/19 A2987 RMK AO2 SLP102 T02560194
KFSD 170656Z AUTO 17014G23KT 10SM SCT120 26/20 A2988 RMK AO2 SLP108 T02560200
KFSD 170556Z AUTO 17014G21KT 10SM BKN120 26/21 A2989 RMK AO2 PK WND 17026/0501 SLP109 T02560206 10272 20256 402890206 58006
KFSD 170456Z 16014G23KT 10SM BKN120 26/21 A2990 RMK AO2 SLP113 LAST T02560206
KFSD 170356Z 17015G26KT 10SM OVC150 26/21 A2991 RMK AO2 PK WND 18026/0349 SLP116 T02610206
KFSD 170256Z 16014G23KT 10SM OVC190 27/21 A2991 RMK AO2 SLP117 T02670206 53002
KFSD 170056Z 16012G19KT 10SM BKN150 OVC210 27/21 A2990 RMK AO2 SLP116 T02670206
KFSD 162356Z 16011KT 10SM BKN150 OVC200 27/21 A2990 RMK AO2 SLP116 T02720206 10289 20261 56004
KFSD 162256Z 16014G21KT 10SM BKN150 OVC250 27/21 A2990 RMK AO2 SLP116 T02720206
KFSD 162156Z 15012KT 10SM OVC200 28/22 A2991 RMK AO2 SLP118 T02830217
KFSD 162056Z 16010G19KT 10SM OVC220 28/21 A2991 RMK AO2 SLP119 T02830206 56010